createdAt,value
2022-09-30T06:08:25.773Z,63.17
2022-09-30T06:11:01.201Z,63.33
2022-09-30T06:13:30.588Z,63.34
2022-09-30T06:16:17.175Z,63.19
2022-09-30T06:18:48.692Z,63.27
2022-09-30T06:21:18.804Z,62.97
2022-09-30T06:23:47.742Z,63.03
2022-09-30T06:26:16.885Z,63.15
2022-09-30T06:28:46.088Z,63.08
2022-09-30T06:31:15.040Z,63.08
2022-09-30T06:33:44.586Z,63.23
2022-09-30T06:36:13.578Z,63.30
2022-09-30T06:38:42.821Z,63.27
2022-09-30T06:41:12.851Z,63.31
2022-09-30T06:43:45.703Z,63.34
2022-09-30T06:46:30.875Z,63.11
2022-09-30T06:49:12.225Z,63.21
2022-09-30T06:51:42.845Z,63.09
2022-09-30T06:54:13.053Z,63.30
2022-09-30T06:56:41.972Z,63.19
2022-09-30T06:59:11.777Z,63.09
2022-09-30T07:01:42.397Z,63.13
2022-09-30T07:04:11.518Z,63.10
2022-09-30T07:06:42.270Z,62.96
2022-09-30T07:09:12.715Z,62.98
2022-09-30T07:11:42.391Z,62.92
2022-09-30T07:14:12.983Z,62.73
2022-09-30T07:16:44.398Z,62.66
2022-09-30T07:19:14.172Z,62.61
2022-09-30T07:21:51.011Z,62.45
2022-09-30T07:24:20.949Z,62.62
2022-09-30T07:26:50.112Z,62.68
2022-09-30T07:29:19.036Z,62.62
2022-09-30T07:31:51.027Z,62.32
2022-09-30T07:34:20.632Z,62.10
2022-09-30T07:36:50.099Z,62.01
2022-09-30T07:39:19.122Z,61.65
2022-09-30T07:41:48.081Z,61.59
2022-09-30T07:44:16.975Z,61.61
2022-09-30T07:46:47.562Z,61.43
2022-09-30T07:49:23.610Z,61.17
2022-09-30T07:51:56.275Z,61.17
2022-09-30T07:54:28.973Z,60.79
2022-09-30T07:57:15.943Z,60.89
2022-09-30T07:59:50.757Z,60.72
2022-09-30T08:02:20.208Z,60.60
2022-09-30T08:04:49.342Z,60.21
2022-09-30T08:07:18.954Z,60.08
2022-09-30T08:09:48.670Z,59.83
2022-09-30T08:12:17.955Z,59.53
2022-09-30T08:14:46.846Z,59.41
2022-09-30T08:17:16.391Z,59.17
2022-09-30T08:19:47.023Z,58.87
2022-09-30T08:22:16.443Z,58.54
2022-09-30T08:24:45.688Z,58.46
2022-09-30T08:27:15.579Z,58.22
2022-09-30T08:29:55.110Z,58.29
2022-09-30T08:32:25.180Z,57.82
2022-09-30T08:34:54.728Z,57.71
2022-09-30T08:37:23.776Z,57.43
2022-09-30T08:39:53.690Z,57.32
2022-09-30T08:42:40.571Z,57.09
2022-09-30T08:45:23.464Z,56.85
2022-09-30T08:48:07.426Z,56.63
2022-09-30T08:50:57.770Z,56.47
2022-09-30T08:53:30.329Z,55.92
2022-09-30T08:56:03.096Z,55.70
2022-09-30T08:58:35.454Z,55.63
2022-09-30T09:01:12.231Z,55.63
2022-09-30T09:03:47.761Z,55.15
2022-09-30T09:06:27.185Z,54.70
2022-09-30T09:09:18.189Z,54.78
2022-09-30T09:11:59.850Z,54.40
2022-09-30T09:14:45.047Z,54.07
2022-09-30T09:17:25.478Z,53.85
2022-09-30T09:20:02.985Z,53.73
2022-09-30T09:22:34.404Z,52.29
2022-09-30T09:25:13.497Z,52.27
2022-09-30T09:27:51.221Z,52.47
2022-09-30T09:30:23.946Z,51.98
2022-09-30T09:32:56.764Z,52.19
2022-09-30T09:35:36.476Z,52.15
2022-09-30T09:38:25.586Z,52.11
2022-09-30T09:41:06.346Z,49.95
2022-09-30T09:43:48.723Z,50.32
2022-09-30T09:46:26.481Z,50.21
2022-09-30T09:49:29.559Z,50.72
2022-09-30T09:52:20.015Z,50.50
2022-09-30T09:54:51.996Z,49.83
2022-09-30T09:57:32.587Z,49.22
2022-09-30T10:00:19.164Z,49.43
2022-09-30T10:03:00.937Z,48.67
2022-09-30T10:05:38.978Z,47.49
2022-09-30T10:08:17.936Z,48.07
2022-09-30T10:10:53.347Z,47.44
2022-09-30T10:13:26.982Z,47.20
2022-09-30T10:16:02.656Z,47.56
2022-09-30T10:18:38.686Z,47.32
2022-09-30T10:21:21.401Z,47.65
2022-09-30T10:23:51.633Z,46.59
2022-09-30T10:26:49.179Z,47.45
2022-09-30T10:29:31.635Z,47.49
2022-09-30T10:32:13.735Z,45.98
2022-09-30T10:34:48.671Z,46.15
2022-09-30T10:37:23.100Z,46.37
2022-09-30T10:40:02.336Z,46.63
2022-09-30T10:42:34.707Z,45.95
2022-09-30T10:45:16.560Z,46.14
2022-09-30T10:47:49.617Z,45.48
2022-09-30T10:50:24.997Z,44.60
2022-09-30T10:52:58.845Z,44.56
2022-09-30T10:55:41.657Z,43.82
2022-09-30T10:58:25.913Z,44.56
2022-09-30T11:01:02.651Z,44.89
2022-09-30T11:03:45.402Z,44.76
2022-09-30T11:06:15.172Z,44.41
2022-09-30T11:08:58.953Z,43.65
2022-09-30T11:11:38.961Z,44.09
2022-09-30T11:14:33.089Z,43.96
2022-09-30T11:17:10.709Z,44.12
2022-09-30T11:20:06.261Z,43.81
2022-09-30T11:22:55.782Z,43.24
2022-09-30T11:25:32.613Z,42.59
2022-09-30T11:28:24.486Z,42.60
2022-09-30T11:31:07.340Z,42.24
2022-09-30T11:33:51.690Z,42.42
2022-09-30T11:36:32.058Z,42.28
2022-09-30T11:39:20.568Z,42.18
2022-09-30T11:41:58.792Z,42.15
2022-09-30T11:44:33.642Z,42.39
2022-09-30T11:47:25.813Z,41.58
2022-09-30T11:50:10.563Z,41.51
2022-09-30T11:52:54.156Z,42.06
2022-09-30T11:55:37.237Z,40.65
2022-09-30T11:58:39.320Z,40.14
2022-09-30T12:01:11.301Z,40.24
2022-09-30T12:03:48.143Z,39.22
2022-09-30T12:06:25.986Z,39.47
2022-09-30T12:09:03.384Z,38.35
2022-09-30T12:11:42.344Z,38.88
2022-09-30T12:14:24.027Z,38.97
2022-09-30T12:16:56.217Z,38.16
2022-09-30T12:19:34.193Z,36.79
2022-09-30T12:22:11.311Z,37.71
2022-09-30T12:24:43.970Z,37.22
2022-09-30T12:39:25.575Z,36.57
2022-09-30T12:43:05.780Z,34.97
2022-09-30T12:45:59.766Z,35.42
2022-09-30T12:48:37.227Z,35.07
2022-09-30T12:51:07.824Z,35.01
2022-09-30T12:53:42.125Z,34.87
2022-09-30T12:56:15.255Z,34.05
2022-09-30T12:58:48.865Z,34.61
2022-09-30T13:01:23.663Z,35.03
2022-09-30T13:04:16.701Z,34.41
2022-09-30T13:07:16.291Z,33.91
2022-09-30T13:10:02.833Z,34.48
2022-09-30T13:12:44.030Z,33.51
2022-09-30T13:15:42.400Z,33.81
2022-09-30T13:18:47.477Z,33.73
2022-09-30T13:21:22.937Z,33.83
2022-09-30T13:23:56.001Z,33.92
2022-09-30T13:26:48.619Z,33.77
2022-09-30T13:29:37.687Z,34.27
2022-09-30T13:32:14.501Z,33.87
2022-09-30T13:34:56.104Z,33.81
2022-09-30T13:37:40.915Z,34.07
2022-09-30T13:40:37.558Z,32.89
2022-09-30T13:43:18.947Z,32.49
2022-09-30T13:45:51.415Z,32.92
2022-09-30T13:48:25.886Z,32.27
2022-09-30T13:50:59.342Z,32.18
2022-09-30T13:53:32.294Z,31.31
2022-09-30T13:56:06.516Z,32.26
2022-09-30T13:59:02.929Z,31.80
2022-09-30T14:01:52.967Z,31.72
2022-09-30T14:04:49.399Z,31.20
2022-09-30T14:07:37.237Z,31.08
2022-09-30T14:10:24.498Z,31.94
2022-09-30T14:13:07.881Z,31.92
2022-09-30T14:16:08.631Z,31.91
2022-09-30T14:19:09.643Z,31.60
2022-09-30T14:21:44.812Z,31.69
2022-09-30T14:24:17.055Z,30.88
2022-09-30T14:27:07.455Z,30.49
2022-09-30T14:29:43.475Z,30.46
2022-09-30T14:32:18.265Z,30.12
2022-09-30T14:34:48.652Z,30.68
2022-09-30T14:37:25.535Z,30.84
2022-09-30T14:39:55.256Z,30.47
2022-09-30T14:42:31.164Z,30.23
2022-09-30T14:45:04.029Z,30.25
2022-09-30T14:47:37.941Z,30.25
2022-09-30T14:50:17.494Z,30.30
2022-09-30T14:52:54.204Z,30.33
2022-09-30T14:55:27.629Z,30.52
2022-09-30T14:58:21.111Z,30.19
2022-09-30T15:00:59.226Z,30.13
2022-09-30T15:03:30.237Z,30.24
2022-09-30T15:05:59.668Z,30.54
2022-09-30T15:08:29.047Z,30.73
2022-09-30T15:10:58.435Z,30.90
2022-09-30T15:13:31.420Z,30.84
2022-09-30T15:29:38.054Z,31.91
2022-09-30T15:45:02.702Z,32.74
2022-09-30T16:02:24.767Z,33.31
2022-09-30T16:04:54.671Z,33.70
2022-09-30T16:07:28.023Z,33.77
2022-09-30T16:09:59.179Z,34.09
2022-09-30T16:12:35.111Z,34.20
2022-09-30T16:15:15.040Z,34.23
2022-09-30T16:17:49.509Z,34.46
2022-09-30T16:20:25.153Z,34.70
2022-09-30T16:22:56.294Z,34.82
2022-09-30T16:25:28.311Z,34.93
2022-09-30T16:27:59.961Z,35.11
2022-09-30T16:30:31.660Z,35.16
2022-09-30T16:33:04.915Z,35.32
2022-09-30T16:35:34.526Z,35.62
2022-09-30T16:38:06.311Z,35.69
2022-09-30T16:40:37.424Z,35.93
2022-09-30T16:43:10.558Z,35.99
2022-09-30T16:45:41.131Z,36.31
2022-09-30T16:48:16.282Z,36.41
2022-09-30T16:50:50.982Z,36.48
2022-09-30T17:05:42.593Z,37.51
2022-09-30T17:08:13.862Z,37.60
2022-09-30T17:10:45.715Z,37.69
2022-09-30T17:13:15.755Z,37.90
2022-09-30T17:15:50.274Z,38.10
2022-09-30T17:18:20.204Z,38.23
2022-09-30T17:20:52.229Z,38.38
2022-09-30T17:23:22.967Z,38.78
2022-09-30T17:25:53.326Z,39.01
2022-09-30T17:28:22.463Z,39.17
2022-09-30T17:30:52.619Z,39.27
2022-09-30T17:33:24.528Z,39.37
2022-09-30T17:35:59.520Z,39.70
2022-09-30T17:38:37.220Z,39.79
2022-09-30T17:41:25.862Z,39.88
2022-09-30T17:43:58.577Z,40.23
2022-09-30T17:46:27.786Z,40.39
2022-09-30T17:48:57.124Z,40.62
2022-09-30T17:51:26.236Z,40.83
2022-09-30T17:53:57.855Z,40.75
2022-09-30T17:56:28.507Z,41.03
2022-09-30T17:59:01.406Z,41.02
2022-09-30T18:01:32.626Z,41.11
2022-09-30T18:04:03.093Z,41.22
2022-09-30T18:06:45.806Z,41.44
2022-09-30T18:09:14.991Z,41.50
2022-09-30T18:11:44.791Z,41.64
2022-09-30T18:14:15.730Z,41.85
2022-09-30T18:16:44.820Z,42.09
2022-09-30T18:21:44.335Z,42.22
2022-09-30T18:24:16.309Z,42.50
2022-09-30T18:26:46.189Z,42.59
2022-09-30T18:29:15.335Z,42.51
2022-09-30T18:31:45.712Z,42.78
2022-09-30T18:34:16.730Z,42.93
2022-09-30T18:36:45.825Z,42.86
2022-09-30T18:39:14.896Z,43.01
2022-09-30T18:41:45.807Z,43.09
2022-09-30T18:44:15.469Z,43.08
2022-09-30T18:46:44.818Z,43.12
2022-09-30T18:49:13.995Z,43.13
2022-09-30T18:51:43.160Z,43.46
2022-09-30T18:54:14.918Z,43.45
2022-09-30T18:56:44.241Z,43.71
2022-09-30T18:59:18.176Z,43.62
2022-09-30T19:01:50.128Z,43.84
2022-09-30T19:04:19.848Z,43.83
2022-09-30T19:06:58.383Z,43.88
2022-09-30T19:09:27.902Z,44.17
2022-09-30T19:11:57.636Z,44.18
2022-09-30T19:14:30.341Z,44.37
2022-09-30T19:17:02.046Z,44.42
2022-09-30T19:19:31.830Z,44.68
2022-09-30T19:22:02.785Z,44.57
2022-09-30T19:24:31.970Z,44.69
2022-09-30T19:27:01.472Z,44.74
2022-09-30T19:29:30.939Z,44.75
2022-09-30T19:32:02.891Z,44.86
2022-09-30T19:34:34.839Z,45.24
2022-09-30T19:37:03.945Z,45.31
2022-09-30T19:39:44.873Z,45.30
2022-09-30T19:42:17.946Z,45.50
2022-09-30T19:44:47.577Z,45.83
2022-09-30T19:47:18.210Z,46.10
2022-09-30T19:49:47.443Z,46.12
2022-09-30T19:52:21.886Z,46.23
2022-09-30T19:54:54.472Z,46.39
2022-09-30T19:57:24.824Z,46.40
2022-09-30T19:59:54.299Z,46.57
2022-09-30T20:02:32.625Z,46.75
2022-09-30T20:05:03.370Z,47.13
2022-09-30T20:07:32.719Z,47.27
2022-09-30T20:10:01.861Z,47.64
2022-09-30T20:12:31.977Z,47.64
2022-09-30T20:15:19.381Z,47.83
2022-09-30T20:17:48.565Z,48.08
2022-09-30T20:20:36.582Z,48.11
2022-09-30T20:23:05.173Z,48.41
2022-09-30T20:25:35.957Z,48.59
2022-09-30T20:28:05.807Z,48.78
2022-09-30T20:30:40.706Z,48.60
2022-09-30T20:33:10.582Z,49.00
2022-09-30T20:35:43.606Z,49.23
2022-09-30T20:38:24.376Z,49.33
2022-09-30T20:40:57.773Z,49.38
2022-09-30T20:43:28.511Z,49.44
2022-09-30T20:46:00.793Z,49.70
2022-09-30T20:48:34.320Z,49.82
2022-09-30T20:51:06.916Z,50.07
2022-09-30T20:53:39.244Z,50.10
2022-09-30T20:56:11.903Z,50.34
2022-09-30T20:58:41.726Z,50.50
2022-09-30T21:01:15.145Z,50.80
2022-09-30T21:03:49.794Z,51.02
2022-09-30T21:06:21.992Z,50.93
2022-09-30T21:08:52.285Z,51.19
2022-09-30T21:11:23.145Z,50.86
2022-09-30T21:13:53.417Z,51.07
2022-09-30T21:16:26.170Z,51.20
2022-09-30T21:18:59.124Z,51.66
2022-09-30T21:21:28.670Z,51.73
2022-09-30T21:23:59.409Z,51.86
2022-09-30T21:26:29.496Z,51.72
2022-09-30T21:28:59.564Z,51.61
2022-09-30T21:34:38.934Z,51.83
2022-09-30T21:37:08.642Z,51.84
2022-09-30T21:39:37.679Z,51.87
2022-09-30T21:42:08.257Z,52.10
2022-09-30T21:44:45.722Z,52.27
2022-09-30T21:47:15.222Z,52.62
2022-09-30T21:49:46.407Z,52.29
2022-09-30T21:52:15.710Z,52.55
2022-09-30T21:54:45.498Z,52.59
2022-09-30T21:57:16.422Z,53.13
2022-09-30T21:59:50.284Z,53.71
2022-09-30T22:02:21.539Z,53.88
2022-09-30T22:04:52.171Z,54.11
2022-09-30T22:07:24.548Z,53.84
2022-09-30T22:09:53.746Z,53.86
2022-09-30T22:12:23.052Z,53.97
2022-09-30T22:14:53.063Z,53.85
2022-09-30T22:17:22.106Z,54.08
2022-09-30T22:19:51.273Z,54.19
2022-09-30T22:22:20.371Z,54.41
2022-09-30T22:24:49.350Z,54.59
2022-09-30T22:27:18.630Z,54.69
2022-09-30T22:29:48.425Z,54.94
2022-09-30T22:32:17.432Z,55.01
2022-09-30T22:35:04.992Z,54.88
2022-09-30T22:38:00.822Z,54.80
2022-09-30T22:40:30.265Z,55.07
2022-09-30T22:42:59.126Z,55.24
2022-09-30T22:45:28.806Z,55.44
2022-09-30T22:47:58.090Z,55.63
2022-09-30T22:50:28.202Z,55.35
2022-09-30T22:52:57.976Z,55.59
2022-09-30T22:55:27.096Z,55.88
2022-09-30T22:57:56.197Z,56.00
2022-09-30T23:00:25.558Z,56.36
2022-09-30T23:02:56.004Z,56.29
2022-09-30T23:05:26.172Z,56.58
2022-09-30T23:07:57.924Z,56.50
2022-09-30T23:10:30.896Z,56.49
2022-09-30T23:13:00.547Z,56.66
2022-09-30T23:15:29.660Z,56.81
2022-09-30T23:17:59.114Z,56.88
2022-09-30T23:20:28.395Z,57.01
2022-09-30T23:22:57.340Z,57.19
2022-09-30T23:25:26.333Z,57.16
2022-09-30T23:27:56.075Z,57.32
2022-09-30T23:30:26.319Z,57.09
2022-09-30T23:32:55.334Z,57.27
2022-09-30T23:35:24.430Z,57.28
2022-09-30T23:37:53.321Z,57.46
2022-09-30T23:40:22.336Z,57.58
2022-09-30T23:42:54.864Z,57.54
2022-09-30T23:45:23.799Z,57.48
2022-09-30T23:47:55.926Z,57.64
2022-09-30T23:50:24.931Z,57.69
2022-09-30T23:52:54.047Z,57.86
2022-09-30T23:55:23.084Z,58.00
2022-09-30T23:57:52.258Z,57.88
